createdAt,value
2023-04-20T00:00:51.975Z,52.23
2023-04-20T00:01:52.036Z,52.57
2023-04-20T00:02:52.187Z,52.57
2023-04-20T00:03:52.497Z,51.72
2023-04-20T00:04:52.278Z,51.72
2023-04-20T00:05:52.266Z,51.58
2023-04-20T00:06:52.340Z,51.66
2023-04-20T00:07:52.377Z,51.91
2023-04-20T00:08:52.446Z,51.28
2023-04-20T00:09:52.529Z,50.81
2023-04-20T00:10:52.543Z,50.93
2023-04-20T00:11:52.625Z,51.51
2023-04-20T00:12:52.661Z,51.88
2023-04-20T00:13:52.709Z,51.78
2023-04-20T00:14:52.774Z,51.99
2023-04-20T00:15:52.824Z,51.99
2023-04-20T00:16:52.908Z,51.68
2023-04-20T00:17:52.958Z,52.09
2023-04-20T00:18:53.052Z,51.89
2023-04-20T00:19:53.060Z,52.81
2023-04-20T00:20:53.095Z,52.50
2023-04-20T00:21:53.157Z,52.42
2023-04-20T00:22:53.198Z,52.04
2023-04-20T00:23:53.255Z,52.23
2023-04-20T00:24:53.313Z,52.40
2023-04-20T00:25:53.355Z,52.20
2023-04-20T00:26:53.388Z,52.02
2023-04-20T00:27:53.378Z,51.85
2023-04-20T00:28:53.425Z,52.19
2023-04-20T00:29:53.429Z,51.93
2023-04-20T00:30:53.447Z,51.96
2023-04-20T00:31:53.427Z,52.17
2023-04-20T00:32:53.538Z,52.09
2023-04-20T00:33:53.516Z,51.95
2023-04-20T00:34:53.528Z,51.92
2023-04-20T00:35:53.540Z,52.24
2023-04-20T00:36:53.617Z,51.83
2023-04-20T00:37:53.619Z,51.78
2023-04-20T00:38:53.701Z,51.87
2023-04-20T00:39:53.667Z,51.81
2023-04-20T00:40:53.680Z,51.77
2023-04-20T00:41:53.706Z,52.61
2023-04-20T00:42:53.749Z,52.52
2023-04-20T00:43:53.845Z,52.69
2023-04-20T00:44:53.806Z,53.22
2023-04-20T00:45:53.863Z,52.85
2023-04-20T00:46:53.807Z,52.30
2023-04-20T00:47:53.860Z,52.40
2023-04-20T00:48:53.894Z,52.58
2023-04-20T00:49:53.871Z,52.31
2023-04-20T00:50:53.862Z,51.81
2023-04-20T00:51:53.809Z,52.27
2023-04-20T00:52:53.952Z,52.52
2023-04-20T00:53:53.922Z,52.61
2023-04-20T00:54:53.933Z,52.21
2023-04-20T00:55:53.926Z,52.32
2023-04-20T00:56:53.993Z,52.38
2023-04-20T00:57:53.955Z,52.16
2023-04-20T00:58:53.988Z,52.27
2023-04-20T00:59:54.022Z,52.87
2023-04-20T01:00:54.022Z,52.92
2023-04-20T01:01:54.126Z,52.98
2023-04-20T01:02:54.286Z,53.18
2023-04-20T01:03:54.222Z,53.03
2023-04-20T01:04:54.133Z,52.97
2023-04-20T01:05:54.165Z,52.91
2023-04-20T01:06:54.206Z,52.65
2023-04-20T01:07:54.258Z,52.67
2023-04-20T01:08:54.290Z,52.70
2023-04-20T01:09:54.251Z,52.93
2023-04-20T01:10:54.268Z,52.57
2023-04-20T01:11:54.253Z,53.26
2023-04-20T01:12:54.277Z,53.07
2023-04-20T01:13:54.333Z,52.99
2023-04-20T01:14:54.307Z,52.75
2023-04-20T01:15:54.326Z,52.73
2023-04-20T01:16:54.336Z,52.80
2023-04-20T01:17:54.385Z,53.10
2023-04-20T01:18:54.384Z,53.21
2023-04-20T01:19:54.381Z,53.17
2023-04-20T01:20:54.366Z,53.16
2023-04-20T01:21:54.322Z,53.18
2023-04-20T01:22:54.389Z,53.47
2023-04-20T01:23:54.347Z,53.53
2023-04-20T01:24:54.360Z,54.28
2023-04-20T01:25:54.359Z,54.11
2023-04-20T01:26:54.386Z,53.70
2023-04-20T01:27:54.383Z,53.42
2023-04-20T01:28:54.443Z,53.54
2023-04-20T01:29:54.421Z,54.10
2023-04-20T01:30:54.438Z,53.67
2023-04-20T01:31:54.485Z,54.20
2023-04-20T01:32:54.457Z,54.22
2023-04-20T01:33:54.425Z,54.02
2023-04-20T01:34:54.415Z,54.31
2023-04-20T01:35:54.389Z,54.10
2023-04-20T01:36:54.434Z,53.96
2023-04-20T01:37:54.446Z,53.82
2023-04-20T01:38:54.473Z,53.70
2023-04-20T01:39:54.535Z,53.66
2023-04-20T01:40:54.513Z,53.61
2023-04-20T01:41:54.509Z,53.32
2023-04-20T01:42:54.526Z,53.35
2023-04-20T01:43:54.522Z,53.30
2023-04-20T01:44:54.527Z,52.90
2023-04-20T01:45:54.534Z,53.02
2023-04-20T01:46:54.642Z,52.96
2023-04-20T01:47:54.591Z,53.29
2023-04-20T01:48:54.615Z,53.08
2023-04-20T01:49:54.589Z,52.94
2023-04-20T01:50:54.605Z,52.73
2023-04-20T01:51:54.618Z,52.75
2023-04-20T01:52:54.622Z,52.97
2023-04-20T01:53:54.645Z,52.75
2023-04-20T01:54:54.633Z,52.96
2023-04-20T01:55:54.653Z,52.39
2023-04-20T01:56:54.672Z,52.38
2023-04-20T01:57:54.698Z,52.92
2023-04-20T01:58:54.709Z,53.03
2023-04-20T01:59:54.738Z,52.86
2023-04-20T02:00:54.772Z,52.86
2023-04-20T02:01:54.786Z,53.16
2023-04-20T02:02:54.879Z,53.14
2023-04-20T02:03:54.936Z,53.06
2023-04-20T02:04:54.773Z,52.77
2023-04-20T02:05:54.842Z,52.94
2023-04-20T02:06:54.825Z,52.86
2023-04-20T02:07:54.840Z,53.05
2023-04-20T02:08:54.898Z,53.20
2023-04-20T02:09:54.855Z,53.44
2023-04-20T02:10:54.919Z,53.87
2023-04-20T02:11:54.911Z,53.40
2023-04-20T02:12:54.969Z,53.95
2023-04-20T02:13:54.943Z,53.80
2023-04-20T02:14:54.952Z,53.66
2023-04-20T02:15:54.994Z,53.58
2023-04-20T02:16:55.035Z,54.08
2023-04-20T02:17:55.024Z,54.01
2023-04-20T02:18:55.040Z,53.91
2023-04-20T02:19:55.018Z,54.02
2023-04-20T02:20:55.016Z,54.39
2023-04-20T02:21:55.989Z,54.27
2023-04-20T02:22:55.062Z,55.07
2023-04-20T02:23:55.520Z,54.89
2023-04-20T02:24:55.179Z,55.50
2023-04-20T02:25:55.180Z,55.63
2023-04-20T02:26:55.199Z,55.42
2023-04-20T02:27:55.233Z,55.50
2023-04-20T02:28:55.291Z,55.36
2023-04-20T02:29:55.350Z,55.25
2023-04-20T02:30:55.425Z,55.10
2023-04-20T02:31:55.417Z,55.15
2023-04-20T02:32:55.464Z,55.20
2023-04-20T02:33:55.518Z,55.37
2023-04-20T02:34:55.529Z,55.50
2023-04-20T02:35:55.538Z,55.04
2023-04-20T02:36:55.621Z,55.18
2023-04-20T02:37:55.627Z,54.90
2023-04-20T02:38:55.698Z,55.17
2023-04-20T02:39:55.720Z,55.14
2023-04-20T02:40:55.738Z,55.46
2023-04-20T02:41:55.787Z,55.09
2023-04-20T02:42:55.830Z,54.83
2023-04-20T02:43:55.902Z,54.56
2023-04-20T02:44:55.906Z,54.34
2023-04-20T02:45:55.940Z,54.23
2023-04-20T02:46:56.074Z,54.28
2023-04-20T02:47:56.147Z,54.78
2023-04-20T02:48:56.058Z,55.60
2023-04-20T02:49:56.089Z,56.05
2023-04-20T02:50:56.123Z,55.49
2023-04-20T02:51:56.146Z,55.25
2023-04-20T02:52:56.227Z,55.11
2023-04-20T02:53:56.282Z,55.15
2023-04-20T02:54:56.273Z,55.22
2023-04-20T02:55:56.308Z,55.13
2023-04-20T02:56:57.927Z,55.07
2023-04-20T02:57:56.380Z,55.35
2023-04-20T02:58:56.496Z,55.27
2023-04-20T02:59:56.474Z,54.93
2023-04-20T03:00:56.540Z,55.27
2023-04-20T03:01:56.642Z,55.54
2023-04-20T03:02:56.821Z,55.80
2023-04-20T03:03:56.847Z,56.04
2023-04-20T03:04:56.775Z,55.71
2023-04-20T03:05:56.907Z,56.21
2023-04-20T03:06:56.832Z,56.30
2023-04-20T03:07:56.921Z,56.66
2023-04-20T03:08:56.974Z,56.23
2023-04-20T03:09:57.011Z,56.17
2023-04-20T03:10:57.081Z,56.45
2023-04-20T03:11:57.125Z,55.93
2023-04-20T03:12:57.186Z,56.27
2023-04-20T03:13:57.305Z,56.37
2023-04-20T03:14:57.319Z,56.21
2023-04-20T03:15:57.432Z,56.91
2023-04-20T03:16:57.436Z,56.90
2023-04-20T03:17:57.515Z,56.97
2023-04-20T03:18:57.547Z,56.77
2023-04-20T03:19:57.598Z,56.75
2023-04-20T03:20:57.673Z,56.70
2023-04-20T03:21:57.758Z,57.10
2023-04-20T03:22:57.805Z,56.84
2023-04-20T03:23:57.855Z,56.89
2023-04-20T03:24:57.941Z,57.36
2023-04-20T03:25:57.984Z,57.52
2023-04-20T03:26:58.063Z,58.13
2023-04-20T03:27:58.168Z,58.55
2023-04-20T03:28:58.262Z,58.58
2023-04-20T03:29:58.226Z,57.74
2023-04-20T03:30:58.239Z,57.50
2023-04-20T03:31:58.359Z,57.70
2023-04-20T03:32:58.491Z,57.09
2023-04-20T03:33:58.441Z,57.10
2023-04-20T03:34:58.490Z,56.79
2023-04-20T03:35:58.554Z,56.65
2023-04-20T03:36:58.601Z,56.46
2023-04-20T03:37:58.658Z,56.01
2023-04-20T03:38:58.733Z,55.79
2023-04-20T03:39:58.834Z,55.59
2023-04-20T03:40:58.851Z,55.49
2023-04-20T03:41:58.968Z,55.25
2023-04-20T03:42:58.962Z,55.26
2023-04-20T03:43:59.058Z,55.82
2023-04-20T03:44:59.097Z,56.01
2023-04-20T03:45:59.241Z,56.40
2023-04-20T03:46:59.253Z,56.17
2023-04-20T03:47:59.380Z,56.24
2023-04-20T03:48:59.366Z,56.55
2023-04-20T03:49:59.417Z,56.66
2023-04-20T03:50:59.496Z,56.62
2023-04-20T03:51:59.548Z,56.62
2023-04-20T03:52:59.595Z,56.50
2023-04-20T03:53:59.669Z,56.31
2023-04-20T03:54:59.716Z,56.63
2023-04-20T03:55:59.740Z,56.61
2023-04-20T03:56:59.831Z,56.50
2023-04-20T03:57:59.867Z,56.40
2023-04-20T03:58:59.943Z,56.54
2023-04-20T03:59:59.996Z,56.27
2023-04-20T04:01:00.068Z,56.18
2023-04-20T04:02:00.225Z,56.24
2023-04-20T04:03:00.294Z,56.38
2023-04-20T04:04:00.573Z,56.24
2023-04-20T04:05:00.330Z,55.78
2023-04-20T04:06:00.256Z,55.79
2023-04-20T04:07:00.357Z,56.05
2023-04-20T04:08:00.430Z,56.26
2023-04-20T04:09:00.464Z,56.74
2023-04-20T04:10:00.535Z,56.59
2023-04-20T04:11:00.591Z,56.61
2023-04-20T04:12:00.616Z,56.65
2023-04-20T04:13:00.700Z,56.47
2023-04-20T04:14:00.800Z,56.31
2023-04-20T04:15:00.837Z,56.62
2023-04-20T04:16:00.886Z,56.18
2023-04-20T04:17:00.956Z,56.27
2023-04-20T04:18:01.071Z,56.02
2023-04-20T04:19:01.114Z,55.93
2023-04-20T04:20:01.159Z,55.81
2023-04-20T04:21:01.166Z,55.96
2023-04-20T04:22:01.255Z,55.96
2023-04-20T04:23:01.283Z,55.86
2023-04-20T04:24:01.382Z,56.11
2023-04-20T04:25:01.468Z,56.07
2023-04-20T04:26:01.555Z,56.22
2023-04-20T04:27:01.561Z,55.85
2023-04-20T04:28:01.617Z,56.15
2023-04-20T04:29:01.676Z,55.95
2023-04-20T04:30:01.778Z,55.80
2023-04-20T04:31:01.896Z,56.02
2023-04-20T04:32:01.948Z,56.07
2023-04-20T04:33:02.025Z,56.29
2023-04-20T04:34:02.021Z,55.77
2023-04-20T04:35:02.025Z,55.59
2023-04-20T04:36:02.141Z,55.78
2023-04-20T04:37:02.155Z,55.65
2023-04-20T04:38:02.161Z,55.47
2023-04-20T04:39:02.201Z,55.83
2023-04-20T04:40:02.899Z,55.60
2023-04-20T04:41:02.284Z,55.51
2023-04-20T04:42:04.281Z,55.68
2023-04-20T04:43:02.456Z,55.64
2023-04-20T04:44:02.546Z,55.45
2023-04-20T04:45:02.564Z,55.51
2023-04-20T04:46:02.656Z,55.80
2023-04-20T04:47:02.705Z,55.50
2023-04-20T04:48:02.810Z,55.92
2023-04-20T04:49:02.860Z,55.85
2023-04-20T04:50:02.896Z,56.70
2023-04-20T04:51:02.964Z,56.51
2023-04-20T04:52:03.017Z,56.54
2023-04-20T04:53:03.080Z,56.94
2023-04-20T04:54:03.141Z,56.81
2023-04-20T04:55:03.156Z,56.67
2023-04-20T04:56:03.204Z,57.08
2023-04-20T04:57:03.228Z,56.76
2023-04-20T04:58:03.263Z,56.36
2023-04-20T04:59:03.354Z,56.84
2023-04-20T05:00:03.381Z,56.40
2023-04-20T05:01:03.484Z,56.62
2023-04-20T05:02:03.650Z,56.95
2023-04-20T05:03:03.658Z,57.21
2023-04-20T05:04:03.818Z,57.29
2023-04-20T05:05:03.792Z,57.47
2023-04-20T05:06:03.731Z,57.79
2023-04-20T05:07:03.741Z,58.07
2023-04-20T05:08:03.744Z,58.35
2023-04-20T05:09:03.821Z,58.12
2023-04-20T05:10:03.794Z,58.35
2023-04-20T05:11:03.779Z,58.05
2023-04-20T05:12:03.779Z,57.72
2023-04-20T05:13:03.797Z,57.53
2023-04-20T05:14:03.792Z,57.15
2023-04-20T05:15:03.795Z,57.55
2023-04-20T05:16:03.820Z,57.44
2023-04-20T05:17:03.793Z,57.32
2023-04-20T05:18:03.908Z,57.53
2023-04-20T05:19:03.862Z,56.81
2023-04-20T05:20:03.882Z,57.33
2023-04-20T05:21:03.957Z,57.31
2023-04-20T05:22:04.034Z,56.99
2023-04-20T05:23:05.019Z,56.85
2023-04-20T05:24:04.155Z,56.98
2023-04-20T05:25:04.151Z,56.82
2023-04-20T05:26:04.242Z,57.00
2023-04-20T05:27:04.283Z,56.90
2023-04-20T05:28:04.340Z,57.13
2023-04-20T05:29:04.348Z,56.88
2023-04-20T05:30:17.131Z,56.69
2023-04-20T05:31:05.367Z,56.80
2023-04-20T05:32:04.370Z,56.68
2023-04-20T05:33:04.434Z,56.70
2023-04-20T05:34:04.320Z,57.04
2023-04-20T05:35:04.348Z,56.42
2023-04-20T05:36:04.358Z,56.34
2023-04-20T05:37:04.306Z,56.16
2023-04-20T05:38:04.315Z,56.02
2023-04-20T05:39:04.353Z,56.27
2023-04-20T05:40:04.428Z,56.34
2023-04-20T05:41:04.479Z,56.23
2023-04-20T05:42:04.519Z,55.91
2023-04-20T05:43:04.651Z,56.37
2023-04-20T05:44:04.657Z,56.45
2023-04-20T05:45:04.767Z,56.22
2023-04-20T05:46:04.820Z,56.28
2023-04-20T05:47:04.917Z,56.06
2023-04-20T05:48:04.957Z,55.68
2023-04-20T05:49:05.006Z,55.44
2023-04-20T05:50:05.022Z,55.67
2023-04-20T05:51:05.109Z,55.82
2023-04-20T05:52:05.169Z,56.00
2023-04-20T05:53:05.278Z,56.04
2023-04-20T05:54:05.278Z,56.21
2023-04-20T05:55:05.344Z,56.29
2023-04-20T05:56:05.355Z,56.02
2023-04-20T05:57:05.401Z,55.97
2023-04-20T05:58:05.482Z,56.01
2023-04-20T05:59:05.541Z,55.74
2023-04-20T06:00:05.587Z,56.25
2023-04-20T06:01:05.640Z,56.26
2023-04-20T06:02:05.741Z,55.79
2023-04-20T06:03:05.907Z,55.72
2023-04-20T06:04:05.944Z,55.43
2023-04-20T06:05:05.968Z,55.03
2023-04-20T06:06:05.940Z,55.31
2023-04-20T06:07:06.054Z,55.43
2023-04-20T06:08:06.069Z,55.12
2023-04-20T06:09:06.080Z,55.45
2023-04-20T06:10:06.186Z,54.99
2023-04-20T06:11:06.219Z,55.65
2023-04-20T06:12:06.239Z,55.61
2023-04-20T06:13:06.315Z,55.46
2023-04-20T06:14:06.340Z,56.39
2023-04-20T06:15:06.368Z,56.36
2023-04-20T06:16:06.506Z,55.83
2023-04-20T06:17:06.458Z,55.91
2023-04-20T06:18:06.532Z,55.75
2023-04-20T06:19:06.577Z,56.03
2023-04-20T06:20:06.592Z,56.21
2023-04-20T06:21:06.646Z,56.54
2023-04-20T06:22:06.704Z,56.27
2023-04-20T06:23:06.719Z,56.61
2023-04-20T06:24:06.801Z,56.36
2023-04-20T06:25:06.872Z,56.36
2023-04-20T06:26:06.956Z,56.27
2023-04-20T06:27:06.971Z,56.52
2023-04-20T06:28:07.056Z,55.88
2023-04-20T06:29:07.150Z,55.80
2023-04-20T06:30:07.188Z,55.35
2023-04-20T06:31:07.244Z,55.22
2023-04-20T06:32:07.272Z,55.32
2023-04-20T06:33:07.765Z,56.12
2023-04-20T06:34:07.413Z,55.91
2023-04-20T06:35:07.392Z,55.63
2023-04-20T06:36:07.463Z,55.65
2023-04-20T06:37:07.540Z,54.93
2023-04-20T06:38:07.596Z,55.04
2023-04-20T06:39:07.597Z,54.99
2023-04-20T06:40:07.635Z,54.97
2023-04-20T06:41:07.691Z,54.73
2023-04-20T06:42:07.732Z,54.73
2023-04-20T06:43:07.811Z,54.39
2023-04-20T06:44:07.870Z,53.97
2023-04-20T06:45:07.877Z,54.42
2023-04-20T06:46:07.917Z,54.71
2023-04-20T06:47:08.067Z,54.45
2023-04-20T06:48:23.575Z,54.46
2023-04-20T06:49:09.022Z,54.45
2023-04-20T06:50:08.025Z,54.33
2023-04-20T06:51:08.074Z,54.29
2023-04-20T06:52:08.045Z,54.15
2023-04-20T06:53:08.045Z,53.94
2023-04-20T06:54:08.110Z,53.49
2023-04-20T06:55:08.096Z,53.75
2023-04-20T06:56:08.100Z,53.92
2023-04-20T06:57:08.120Z,53.83
2023-04-20T06:58:08.148Z,53.94
2023-04-20T06:59:08.144Z,54.23
2023-04-20T07:00:08.177Z,54.06
2023-04-20T07:01:08.238Z,54.25
2023-04-20T07:02:08.386Z,54.20
2023-04-20T07:03:08.322Z,54.38
2023-04-20T07:04:08.354Z,54.29
2023-04-20T07:05:08.280Z,54.17
2023-04-20T07:06:08.268Z,54.66
2023-04-20T07:07:08.327Z,54.02
2023-04-20T07:08:08.340Z,53.56
2023-04-20T07:09:08.371Z,54.05
2023-04-20T07:10:08.410Z,54.25
2023-04-20T07:11:08.445Z,54.29
2023-04-20T07:12:08.434Z,54.31
2023-04-20T07:13:08.495Z,53.82
2023-04-20T07:14:08.523Z,53.61
2023-04-20T07:15:08.545Z,54.31
2023-04-20T07:16:08.556Z,54.03
2023-04-20T07:17:08.611Z,54.08
2023-04-20T07:18:08.635Z,54.74
2023-04-20T07:19:08.594Z,54.75
2023-04-20T07:20:08.658Z,54.67
2023-04-20T07:21:08.607Z,54.37
2023-04-20T07:22:08.652Z,53.90
2023-04-20T07:23:08.636Z,54.43
2023-04-20T07:24:08.641Z,54.08
2023-04-20T07:25:08.704Z,54.27
2023-04-20T07:26:08.661Z,54.27
2023-04-20T07:27:08.657Z,54.62
2023-04-20T07:28:08.653Z,54.50
2023-04-20T07:29:08.670Z,53.98
2023-04-20T07:30:08.725Z,54.12
2023-04-20T07:31:08.675Z,53.67
2023-04-20T07:32:08.767Z,53.41
2023-04-20T07:33:08.828Z,54.15
2023-04-20T07:34:08.691Z,54.40
2023-04-20T07:35:08.718Z,54.16
2023-04-20T07:36:08.678Z,54.68
2023-04-20T07:37:08.734Z,54.70
2023-04-20T07:38:08.702Z,55.48
2023-04-20T07:39:08.697Z,54.42
2023-04-20T07:40:08.712Z,54.45
2023-04-20T07:41:08.685Z,54.17
2023-04-20T07:42:08.671Z,53.95
2023-04-20T07:43:08.665Z,54.34
2023-04-20T07:44:08.695Z,54.33
2023-04-20T07:45:08.700Z,54.41
2023-04-20T07:46:08.761Z,53.83
2023-04-20T07:47:08.720Z,53.69
2023-04-20T07:48:08.804Z,53.46
2023-04-20T07:49:08.827Z,53.50
2023-04-20T07:50:08.794Z,52.99
2023-04-20T07:51:08.785Z,52.41
2023-04-20T07:52:16.289Z,52.74
2023-04-20T07:53:09.770Z,53.33
2023-04-20T07:54:08.807Z,53.47
2023-04-20T07:55:08.765Z,53.14
2023-04-20T07:56:08.749Z,53.14
2023-04-20T07:57:08.774Z,52.84
2023-04-20T07:58:08.734Z,53.16
2023-04-20T07:59:08.769Z,52.78
2023-04-20T08:00:08.947Z,52.74
2023-04-20T08:01:08.761Z,52.59
2023-04-20T08:02:08.972Z,52.51
2023-04-20T08:03:08.973Z,51.92
2023-04-20T08:04:09.073Z,51.16
2023-04-20T08:05:08.978Z,50.72
2023-04-20T08:06:09.000Z,50.35
2023-04-20T08:07:08.972Z,51.50
2023-04-20T08:08:09.007Z,52.37
2023-04-20T08:09:09.999Z,51.79
2023-04-20T08:10:09.128Z,51.40
2023-04-20T08:11:09.075Z,50.48
2023-04-20T08:12:09.062Z,51.11
2023-04-20T08:13:09.100Z,50.98
2023-04-20T08:15:09.234Z,50.76
2023-04-20T08:16:09.127Z,51.32
2023-04-20T08:17:09.164Z,50.11
2023-04-20T08:18:09.261Z,50.01
2023-04-20T08:19:09.249Z,50.25
2023-04-20T08:20:09.226Z,50.45
2023-04-20T08:21:09.199Z,49.81
2023-04-20T08:22:09.242Z,50.11
2023-04-20T08:23:09.236Z,49.14
2023-04-20T08:24:09.194Z,49.02
2023-04-20T08:25:09.233Z,48.59
2023-04-20T08:26:09.257Z,48.64
2023-04-20T08:27:09.308Z,49.16
2023-04-20T08:28:15.434Z,49.07
2023-04-20T08:29:10.289Z,49.29
2023-04-20T08:30:09.271Z,48.47
2023-04-20T08:31:09.287Z,48.71
2023-04-20T08:32:09.420Z,47.87
2023-04-20T08:33:09.299Z,48.20
2023-04-20T08:34:09.240Z,48.08
2023-04-20T08:35:09.246Z,48.81
2023-04-20T08:36:09.232Z,48.73
2023-04-20T08:37:09.208Z,48.78
2023-04-20T08:38:09.231Z,48.42
2023-04-20T08:39:09.323Z,48.42
2023-04-20T08:40:09.393Z,48.49
2023-04-20T08:41:09.366Z,49.30
2023-04-20T08:42:09.443Z,49.10
2023-04-20T08:43:09.558Z,49.08
2023-04-20T08:44:09.574Z,49.40
2023-04-20T08:45:09.619Z,50.05
2023-04-20T08:46:09.652Z,49.25
2023-04-20T08:47:09.673Z,48.38
2023-04-20T08:48:09.762Z,49.17
2023-04-20T08:49:09.794Z,49.19
2023-04-20T08:50:09.927Z,49.45
2023-04-20T08:51:09.872Z,48.74
2023-04-20T08:52:09.893Z,47.63
2023-04-20T08:53:09.930Z,46.93
2023-04-20T08:54:09.941Z,48.07
2023-04-20T08:55:09.935Z,50.04
2023-04-20T08:56:09.935Z,49.24
2023-04-20T08:57:09.982Z,50.19
2023-04-20T08:58:09.957Z,48.08
2023-04-20T08:59:09.981Z,47.39
2023-04-20T09:00:12.121Z,48.45
2023-04-20T09:01:09.964Z,48.62
2023-04-20T09:02:09.999Z,48.22
2023-04-20T09:03:10.148Z,47.18
2023-04-20T09:04:10.115Z,46.59
2023-04-20T09:05:09.977Z,47.18
2023-04-20T09:06:09.900Z,47.44
2023-04-20T09:07:09.911Z,46.84
2023-04-20T09:08:09.895Z,47.56
2023-04-20T09:09:09.891Z,46.83
2023-04-20T09:10:09.867Z,46.80
2023-04-20T09:11:09.852Z,48.05
2023-04-20T09:12:09.880Z,47.97
2023-04-20T09:13:09.890Z,47.28
2023-04-20T09:14:09.874Z,47.05
2023-04-20T09:15:09.874Z,47.11
2023-04-20T09:16:09.876Z,47.61
2023-04-20T09:17:09.844Z,47.02
2023-04-20T09:18:09.894Z,47.19
2023-04-20T09:19:10.440Z,47.00
2023-04-20T09:20:09.786Z,47.31
2023-04-20T09:21:09.830Z,47.66
2023-04-20T09:22:09.806Z,47.31
2023-04-20T09:23:09.768Z,47.00
2023-04-20T09:24:09.786Z,46.62
2023-04-20T09:25:09.779Z,46.03
2023-04-20T09:26:09.764Z,46.10
2023-04-20T09:27:09.780Z,46.66
2023-04-20T09:28:09.739Z,46.13
2023-04-20T09:29:09.771Z,46.24
2023-04-20T09:30:09.745Z,46.02
2023-04-20T09:31:09.773Z,43.42
2023-04-20T09:32:09.815Z,44.43
2023-04-20T09:33:09.877Z,45.01
2023-04-20T09:34:09.898Z,45.18
2023-04-20T09:35:09.896Z,45.51
2023-04-20T09:36:09.949Z,45.05
2023-04-20T09:37:10.013Z,45.48
2023-04-20T09:38:10.068Z,46.02
2023-04-20T09:39:10.081Z,46.13
2023-04-20T09:40:10.080Z,45.74
2023-04-20T09:41:10.144Z,46.36
2023-04-20T09:42:10.203Z,45.94
2023-04-20T09:43:10.189Z,45.78
2023-04-20T09:44:10.267Z,45.54
2023-04-20T09:45:10.314Z,45.92
2023-04-20T09:46:10.261Z,45.32
2023-04-20T09:47:10.279Z,45.68
2023-04-20T09:48:10.267Z,46.05
2023-04-20T09:49:10.569Z,45.87
2023-04-20T09:50:23.354Z,46.00
2023-04-20T09:51:11.374Z,46.41
2023-04-20T09:52:10.325Z,46.35
2023-04-20T09:53:10.323Z,46.05
2023-04-20T09:54:10.358Z,47.44
2023-04-20T09:55:10.303Z,47.22
2023-04-20T09:56:10.312Z,47.22
2023-04-20T09:57:10.296Z,51.99
2023-04-20T09:58:10.306Z,46.60
2023-04-20T09:59:10.277Z,47.25
2023-04-20T10:00:10.293Z,46.72
2023-04-20T10:01:10.300Z,46.10
2023-04-20T10:02:10.407Z,47.00
2023-04-20T10:03:10.379Z,47.21
2023-04-20T10:04:10.467Z,47.65
2023-04-20T10:05:10.250Z,48.22
2023-04-20T10:06:10.239Z,47.56
2023-04-20T10:07:10.247Z,47.02
2023-04-20T10:08:10.217Z,46.70
2023-04-20T10:09:10.257Z,46.42
2023-04-20T10:10:10.209Z,46.48
2023-04-20T10:11:10.203Z,46.37
2023-04-20T10:12:10.193Z,45.83
2023-04-20T10:13:10.169Z,46.21
2023-04-20T10:14:10.197Z,46.37
2023-04-20T10:15:10.191Z,46.39
2023-04-20T10:16:10.214Z,46.57
2023-04-20T10:17:10.571Z,46.67
2023-04-20T10:18:10.297Z,47.12
2023-04-20T10:19:10.219Z,46.48
2023-04-20T10:20:10.133Z,46.22
2023-04-20T10:21:10.149Z,46.64
2023-04-20T10:22:10.148Z,46.47
2023-04-20T10:23:10.195Z,45.81
2023-04-20T10:24:10.176Z,45.88
2023-04-20T10:25:10.125Z,45.81
2023-04-20T10:26:10.133Z,45.86
2023-04-20T10:27:10.213Z,46.38
2023-04-20T10:28:10.222Z,46.12
2023-04-20T10:29:10.291Z,45.74
2023-04-20T10:30:10.368Z,45.48
2023-04-20T10:31:10.412Z,45.79
2023-04-20T10:32:10.478Z,45.77
2023-04-20T10:33:10.632Z,46.78
2023-04-20T10:34:10.616Z,46.85
2023-04-20T10:35:10.671Z,46.58
2023-04-20T10:36:10.716Z,46.95
2023-04-20T10:37:10.758Z,46.94
2023-04-20T10:38:10.785Z,46.90
2023-04-20T10:39:10.869Z,46.93
2023-04-20T10:40:10.907Z,47.18
2023-04-20T10:41:10.959Z,47.46
2023-04-20T10:42:10.993Z,47.24
2023-04-20T10:43:11.001Z,47.01
2023-04-20T10:44:11.025Z,47.68
2023-04-20T10:45:11.085Z,47.23
2023-04-20T10:46:11.092Z,47.66
2023-04-20T10:47:11.110Z,48.61
2023-04-20T10:48:11.343Z,48.81
2023-04-20T10:49:11.179Z,49.13
2023-04-20T10:50:11.223Z,48.05
2023-04-20T10:51:11.249Z,47.10
2023-04-20T10:52:11.262Z,47.77
2023-04-20T10:53:11.310Z,47.73
2023-04-20T10:54:11.376Z,47.49
2023-04-20T10:55:11.404Z,47.29
2023-04-20T10:56:11.441Z,46.46
2023-04-20T10:57:11.469Z,46.19
2023-04-20T10:58:11.525Z,45.71
2023-04-20T10:59:11.618Z,45.74
2023-04-20T11:00:11.661Z,45.63
2023-04-20T11:01:11.633Z,46.20
2023-04-20T11:02:11.851Z,45.82
2023-04-20T11:03:11.781Z,46.03
2023-04-20T11:04:11.709Z,45.29
2023-04-20T11:05:11.974Z,45.54
2023-04-20T11:06:11.736Z,45.39
2023-04-20T11:07:11.752Z,45.43
2023-04-20T11:08:11.728Z,45.54
2023-04-20T11:09:11.707Z,45.73
2023-04-20T11:10:11.727Z,45.16
2023-04-20T11:11:11.711Z,45.77
2023-04-20T11:12:11.748Z,45.33
2023-04-20T11:13:11.742Z,45.27
2023-04-20T11:14:11.733Z,45.12
2023-04-20T11:15:11.748Z,45.62
2023-04-20T11:16:11.767Z,45.93
2023-04-20T11:17:11.806Z,45.81
2023-04-20T11:18:11.919Z,45.70
2023-04-20T11:19:11.760Z,46.41
2023-04-20T11:20:11.801Z,46.10
2023-04-20T11:21:11.752Z,45.50
2023-04-20T11:22:11.788Z,45.50
2023-04-20T11:23:11.870Z,45.43
2023-04-20T11:24:11.852Z,45.27
2023-04-20T11:25:11.922Z,45.15
2023-04-20T11:26:11.928Z,45.94
2023-04-20T11:27:11.901Z,45.30
2023-04-20T11:28:11.920Z,44.26
2023-04-20T11:29:11.934Z,44.44
2023-04-20T11:30:11.969Z,43.60
2023-04-20T11:31:12.072Z,43.77
2023-04-20T11:32:12.057Z,43.88
2023-04-20T11:33:12.203Z,44.38
2023-04-20T11:34:12.219Z,45.06
2023-04-20T11:35:12.105Z,45.14
2023-04-20T11:36:12.198Z,45.16
2023-04-20T11:37:12.239Z,44.81
2023-04-20T11:38:12.155Z,44.69
2023-04-20T11:39:12.195Z,45.01
2023-04-20T11:40:12.194Z,44.85
2023-04-20T11:41:12.237Z,45.09
2023-04-20T11:42:12.363Z,45.27
2023-04-20T11:43:12.375Z,45.51
2023-04-20T11:44:12.402Z,45.53
2023-04-20T11:45:12.461Z,46.15
2023-04-20T11:46:12.583Z,46.71
2023-04-20T11:47:12.677Z,46.60
2023-04-20T11:48:12.627Z,46.39
2023-04-20T11:49:12.691Z,46.22
2023-04-20T11:50:12.756Z,46.94
2023-04-20T11:51:12.865Z,46.21
2023-04-20T11:52:12.944Z,46.51
2023-04-20T11:53:12.952Z,45.89
2023-04-20T11:54:12.984Z,46.17
2023-04-20T11:55:13.039Z,45.70
2023-04-20T11:56:13.117Z,46.26
2023-04-20T11:57:13.133Z,46.61
2023-04-20T11:58:13.183Z,46.75
2023-04-20T11:59:13.264Z,47.03
2023-04-20T12:00:13.326Z,47.11
2023-04-20T12:01:13.383Z,47.29
2023-04-20T12:02:13.525Z,47.22
2023-04-20T12:03:13.609Z,47.06
2023-04-20T12:04:14.411Z,47.24
2023-04-20T12:05:13.698Z,46.94
2023-04-20T12:06:13.690Z,46.60
2023-04-20T12:07:13.729Z,46.03
2023-04-20T12:08:13.774Z,45.97
2023-04-20T12:09:13.840Z,46.32
2023-04-20T12:10:13.911Z,45.78
2023-04-20T12:11:13.970Z,46.21
2023-04-20T12:12:13.998Z,45.94
2023-04-20T12:13:14.039Z,45.53
2023-04-20T12:14:14.102Z,45.21
2023-04-20T12:15:14.197Z,44.94
2023-04-20T12:16:14.228Z,44.70
2023-04-20T12:17:14.284Z,45.34
2023-04-20T12:18:14.352Z,45.42
2023-04-20T12:19:14.412Z,45.45
2023-04-20T12:20:14.470Z,45.64
2023-04-20T12:21:14.498Z,46.40
2023-04-20T12:22:14.555Z,45.81
2023-04-20T12:23:14.642Z,46.18
2023-04-20T12:24:14.650Z,45.61
2023-04-20T12:25:14.729Z,45.56
2023-04-20T12:26:14.771Z,45.28
2023-04-20T12:27:14.836Z,45.13
2023-04-20T12:28:14.853Z,44.72
2023-04-20T12:29:14.912Z,45.54
2023-04-20T12:30:14.976Z,45.53
2023-04-20T12:31:14.995Z,45.72
2023-04-20T12:32:15.048Z,45.74
2023-04-20T12:33:15.097Z,45.56
2023-04-20T12:34:15.058Z,45.84
2023-04-20T12:35:15.108Z,45.58
2023-04-20T12:36:15.134Z,44.80
2023-04-20T12:37:15.137Z,44.56
2023-04-20T12:38:15.165Z,44.36
2023-04-20T12:39:15.188Z,44.55
2023-04-20T12:40:15.224Z,44.17
2023-04-20T12:41:15.222Z,43.76
2023-04-20T12:42:15.228Z,44.04
2023-04-20T12:43:15.260Z,43.64
2023-04-20T12:44:15.272Z,43.71
2023-04-20T12:45:15.253Z,43.61
2023-04-20T12:46:15.331Z,44.44
2023-04-20T12:47:15.292Z,44.06
2023-04-20T12:48:15.357Z,44.41
2023-04-20T12:49:15.319Z,44.28
2023-04-20T12:50:15.368Z,44.24
2023-04-20T12:51:15.378Z,44.52
2023-04-20T12:52:15.366Z,44.72
2023-04-20T12:53:15.438Z,44.44
2023-04-20T12:54:15.471Z,44.63